sensor_id;sensor_type;location;lat;lon;timestamp;P1;durP1;ratioP1;P2;durP2;ratioP2
39222;SDS011;24936;46.328;11.026;2022-09-09T00:07:21;0.00;;;0.00;;
39222;SDS011;24936;46.328;11.026;2022-09-09T00:10:00;0.00;;;0.00;;
39222;SDS011;24936;46.328;11.026;2022-09-09T00:12:49;0.00;;;0.00;;
39222;SDS011;24936;46.328;11.026;2022-09-09T00:15:19;0.00;;;0.00;;
39222;SDS011;24936;46.328;11.026;2022-09-09T00:20:49;0.00;;;0.00;;
39222;SDS011;24936;46.328;11.026;2022-09-09T00:23:39;0.00;;;0.00;;
39222;SDS011;24936;46.328;11.026;2022-09-09T00:28:50;1999.90;;;999.90;;
39222;SDS011;24936;46.328;11.026;2022-09-09T00:31:26;1999.90;;;999.90;;
39222;SDS011;24936;46.328;11.026;2022-09-09T00:33:54;1999.90;;;999.90;;
39222;SDS011;24936;46.328;11.026;2022-09-09T00:36:23;21.55;;;0.98;;
39222;SDS011;24936;46.328;11.026;2022-09-09T00:38:57;3.83;;;0.50;;
39222;SDS011;24936;46.328;11.026;2022-09-09T00:44:34;2.28;;;0.47;;
39222;SDS011;24936;46.328;11.026;2022-09-09T00:47:25;12.93;;;0.43;;
39222;SDS011;24936;46.328;11.026;2022-09-09T00:56:01;0.00;;;0.00;;
39222;SDS011;24936;46.328;11.026;2022-09-09T01:01:44;0.00;;;0.00;;
39222;SDS011;24936;46.328;11.026;2022-09-09T01:04:12;0.00;;;0.00;;
39222;SDS011;24936;46.328;11.026;2022-09-09T01:06:41;0.00;;;0.00;;
39222;SDS011;24936;46.328;11.026;2022-09-09T01:17:20;0.00;;;0.00;;
39222;SDS011;24936;46.328;11.026;2022-09-09T01:23:10;0.00;;;0.00;;
39222;SDS011;24936;46.328;11.026;2022-09-09T01:28:22;0.00;;;0.00;;
39222;SDS011;24936;46.328;11.026;2022-09-09T01:30:52;0.00;;;0.00;;
39222;SDS011;24936;46.328;11.026;2022-09-09T01:33:19;0.00;;;0.00;;
39222;SDS011;24936;46.328;11.026;2022-09-09T01:38:16;0.00;;;0.00;;
39222;SDS011;24936;46.328;11.026;2022-09-09T01:40:43;0.00;;;0.00;;
39222;SDS011;24936;46.328;11.026;2022-09-09T01:45:34;0.00;;;0.00;;
39222;SDS011;24936;46.328;11.026;2022-09-09T01:48:00;0.00;;;0.00;;
39222;SDS011;24936;46.328;11.026;2022-09-09T01:50:27;0.00;;;0.00;;
39222;SDS011;24936;46.328;11.026;2022-09-09T01:52:54;0.00;;;0.00;;
39222;SDS011;24936;46.328;11.026;2022-09-09T01:55:27;0.00;;;0.00;;
39222;SDS011;24936;46.328;11.026;2022-09-09T02:00:53;0.00;;;0.00;;
39222;SDS011;24936;46.328;11.026;2022-09-09T02:03:31;0.00;;;0.00;;
39222;SDS011;24936;46.328;11.026;2022-09-09T02:08:47;0.00;;;0.00;;
39222;SDS011;24936;46.328;11.026;2022-09-09T02:11:15;0.00;;;0.00;;
39222;SDS011;24936;46.328;11.026;2022-09-09T02:13:43;0.00;;;0.00;;
39222;SDS011;24936;46.328;11.026;2022-09-09T02:16:16;0.00;;;0.00;;
39222;SDS011;24936;46.328;11.026;2022-09-09T02:19:08;0.00;;;0.00;;
39222;SDS011;24936;46.328;11.026;2022-09-09T02:21:39;0.00;;;0.00;;
39222;SDS011;24936;46.328;11.026;2022-09-09T02:24:08;0.00;;;0.00;;
39222;SDS011;24936;46.328;11.026;2022-09-09T02:26:36;0.00;;;0.00;;
39222;SDS011;24936;46.328;11.026;2022-09-09T02:29:07;0.00;;;0.00;;
39222;SDS011;24936;46.328;11.026;2022-09-09T02:31:37;0.00;;;0.00;;
39222;SDS011;24936;46.328;11.026;2022-09-09T02:34:04;0.00;;;0.00;;
39222;SDS011;24936;46.328;11.026;2022-09-09T02:36:33;0.00;;;0.00;;
39222;SDS011;24936;46.328;11.026;2022-09-09T02:39:01;0.00;;;0.00;;
39222;SDS011;24936;46.328;11.026;2022-09-09T02:41:34;0.00;;;0.00;;
39222;SDS011;24936;46.328;11.026;2022-09-09T02:44:05;0.00;;;0.00;;
39222;SDS011;24936;46.328;11.026;2022-09-09T02:55:23;0.00;;;0.00;;
39222;SDS011;24936;46.328;11.026;2022-09-09T03:00:24;0.00;;;0.00;;
39222;SDS011;24936;46.328;11.026;2022-09-09T03:02:53;0.00;;;0.00;;
39222;SDS011;24936;46.328;11.026;2022-09-09T03:05:19;0.00;;;0.00;;
39222;SDS011;24936;46.328;11.026;2022-09-09T03:07:45;0.00;;;0.00;;
39222;SDS011;24936;46.328;11.026;2022-09-09T03:10:11;0.00;;;0.00;;
39222;SDS011;24936;46.328;11.026;2022-09-09T03:12:36;0.00;;;0.00;;
39222;SDS011;24936;46.328;11.026;2022-09-09T03:15:02;0.00;;;0.00;;
39222;SDS011;24936;46.328;11.026;2022-09-09T03:17:28;0.00;;;0.00;;
39222;SDS011;24936;46.328;11.026;2022-09-09T03:19:53;0.00;;;0.00;;
39222;SDS011;24936;46.328;11.026;2022-09-09T03:22:20;0.00;;;0.00;;
39222;SDS011;24936;46.328;11.026;2022-09-09T03:24:46;0.00;;;0.00;;
39222;SDS011;24936;46.328;11.026;2022-09-09T03:27:12;0.00;;;0.00;;
39222;SDS011;24936;46.328;11.026;2022-09-09T03:29:39;0.00;;;0.00;;
39222;SDS011;24936;46.328;11.026;2022-09-09T03:32:04;0.00;;;0.00;;
39222;SDS011;24936;46.328;11.026;2022-09-09T03:34:30;0.00;;;0.00;;
39222;SDS011;24936;46.328;11.026;2022-09-09T03:36:56;0.00;;;0.00;;
39222;SDS011;24936;46.328;11.026;2022-09-09T03:39:21;0.00;;;0.00;;
39222;SDS011;24936;46.328;11.026;2022-09-09T03:41:47;0.00;;;0.00;;
39222;SDS011;24936;46.328;11.026;2022-09-09T03:44:13;0.00;;;0.00;;
39222;SDS011;24936;46.328;11.026;2022-09-09T03:49:04;0.00;;;0.00;;
39222;SDS011;24936;46.328;11.026;2022-09-09T03:51:30;0.00;;;0.00;;
39222;SDS011;24936;46.328;11.026;2022-09-09T03:53:55;0.00;;;0.00;;
39222;SDS011;24936;46.328;11.026;2022-09-09T03:56:23;0.00;;;0.00;;
39222;SDS011;24936;46.328;11.026;2022-09-09T03:58:48;0.00;;;0.00;;
39222;SDS011;24936;46.328;11.026;2022-09-09T04:01:14;0.00;;;0.00;;
39222;SDS011;24936;46.328;11.026;2022-09-09T04:03:41;0.00;;;0.00;;
39222;SDS011;24936;46.328;11.026;2022-09-09T04:06:12;0.00;;;0.00;;
39222;SDS011;24936;46.328;11.026;2022-09-09T04:08:39;0.00;;;0.00;;
39222;SDS011;24936;46.328;11.026;2022-09-09T04:11:05;0.00;;;0.00;;
39222;SDS011;24936;46.328;11.026;2022-09-09T04:15:58;0.00;;;0.00;;
39222;SDS011;24936;46.328;11.026;2022-09-09T04:18:25;0.00;;;0.00;;
39222;SDS011;24936;46.328;11.026;2022-09-09T04:20:51;0.00;;;0.00;;
39222;SDS011;24936;46.328;11.026;2022-09-09T04:23:18;0.00;;;0.00;;
39222;SDS011;24936;46.328;11.026;2022-09-09T04:25:46;0.00;;;0.00;;
39222;SDS011;24936;46.328;11.026;2022-09-09T04:28:13;0.00;;;0.00;;
39222;SDS011;24936;46.328;11.026;2022-09-09T04:30:39;0.00;;;0.00;;
39222;SDS011;24936;46.328;11.026;2022-09-09T04:33:05;0.00;;;0.00;;
39222;SDS011;24936;46.328;11.026;2022-09-09T04:35:31;0.00;;;0.00;;
39222;SDS011;24936;46.328;11.026;2022-09-09T04:37:56;0.10;;;0.10;;
39222;SDS011;24936;46.328;11.026;2022-09-09T04:40:22;0.00;;;0.00;;
39222;SDS011;24936;46.328;11.026;2022-09-09T04:42:47;0.00;;;0.00;;
39222;SDS011;24936;46.328;11.026;2022-09-09T04:45:13;0.00;;;0.00;;
39222;SDS011;24936;46.328;11.026;2022-09-09T04:47:38;0.00;;;0.00;;
39222;SDS011;24936;46.328;11.026;2022-09-09T04:50:04;0.00;;;0.00;;
39222;SDS011;24936;46.328;11.026;2022-09-09T04:52:30;0.00;;;0.00;;
39222;SDS011;24936;46.328;11.026;2022-09-09T04:54:55;0.00;;;0.00;;
39222;SDS011;24936;46.328;11.026;2022-09-09T04:57:21;0.00;;;0.00;;
39222;SDS011;24936;46.328;11.026;2022-09-09T04:59:46;0.00;;;0.00;;
39222;SDS011;24936;46.328;11.026;2022-09-09T05:02:11;0.00;;;0.00;;
39222;SDS011;24936;46.328;11.026;2022-09-09T05:04:37;0.00;;;0.00;;
39222;SDS011;24936;46.328;11.026;2022-09-09T05:07:02;0.00;;;0.00;;
39222;SDS011;24936;46.328;11.026;2022-09-09T05:09:28;0.00;;;0.00;;
39222;SDS011;24936;46.328;11.026;2022-09-09T05:11:53;0.00;;;0.00;;
39222;SDS011;24936;46.328;11.026;2022-09-09T05:14:19;0.00;;;0.00;;
39222;SDS011;24936;46.328;11.026;2022-09-09T05:16:45;0.00;;;0.00;;
39222;SDS011;24936;46.328;11.026;2022-09-09T05:19:12;0.00;;;0.00;;
39222;SDS011;24936;46.328;11.026;2022-09-09T05:21:37;0.00;;;0.00;;
39222;SDS011;24936;46.328;11.026;2022-09-09T05:24:03;0.00;;;0.00;;
39222;SDS011;24936;46.328;11.026;2022-09-09T05:26:28;0.00;;;0.00;;
39222;SDS011;24936;46.328;11.026;2022-09-09T05:28:57;0.00;;;0.00;;
39222;SDS011;24936;46.328;11.026;2022-09-09T05:31:24;0.00;;;0.00;;
39222;SDS011;24936;46.328;11.026;2022-09-09T05:33:53;0.00;;;0.00;;
39222;SDS011;24936;46.328;11.026;2022-09-09T05:36:19;0.00;;;0.00;;
39222;SDS011;24936;46.328;11.026;2022-09-09T05:38:46;0.00;;;0.00;;
39222;SDS011;24936;46.328;11.026;2022-09-09T05:43:38;0.00;;;0.00;;
39222;SDS011;24936;46.328;11.026;2022-09-09T05:48:31;0.00;;;0.00;;
39222;SDS011;24936;46.328;11.026;2022-09-09T05:50:58;0.00;;;0.00;;
39222;SDS011;24936;46.328;11.026;2022-09-09T05:53:24;0.00;;;0.00;;
39222;SDS011;24936;46.328;11.026;2022-09-09T05:55:57;0.00;;;0.00;;
39222;SDS011;24936;46.328;11.026;2022-09-09T05:58:28;0.00;;;0.00;;
39222;SDS011;24936;46.328;11.026;2022-09-09T06:01:09;0.28;;;0.28;;
39222;SDS011;24936;46.328;11.026;2022-09-09T06:03:37;0.00;;;0.00;;
39222;SDS011;24936;46.328;11.026;2022-09-09T06:06:05;0.00;;;0.00;;
39222;SDS011;24936;46.328;11.026;2022-09-09T06:08:33;0.00;;;0.00;;
39222;SDS011;24936;46.328;11.026;2022-09-09T06:11:08;0.00;;;0.00;;
39222;SDS011;24936;46.328;11.026;2022-09-09T06:13:36;0.00;;;0.00;;
39222;SDS011;24936;46.328;11.026;2022-09-09T06:16:03;0.00;;;0.00;;
39222;SDS011;24936;46.328;11.026;2022-09-09T06:18:30;0.00;;;0.00;;
39222;SDS011;24936;46.328;11.026;2022-09-09T06:20:59;0.00;;;0.00;;
39222;SDS011;24936;46.328;11.026;2022-09-09T06:23:26;0.00;;;0.00;;
39222;SDS011;24936;46.328;11.026;2022-09-09T06:26:03;0.00;;;0.00;;
39222;SDS011;24936;46.328;11.026;2022-09-09T06:28:43;0.00;;;0.00;;
39222;SDS011;24936;46.328;11.026;2022-09-09T06:33:36;0.00;;;0.00;;
39222;SDS011;24936;46.328;11.026;2022-09-09T06:36:06;0.00;;;0.00;;
39222;SDS011;24936;46.328;11.026;2022-09-09T06:38:32;0.00;;;0.00;;
39222;SDS011;24936;46.328;11.026;2022-09-09T06:40:58;0.00;;;0.00;;
39222;SDS011;24936;46.328;11.026;2022-09-09T06:43:25;0.00;;;0.00;;
39222;SDS011;24936;46.328;11.026;2022-09-09T06:48:19;0.00;;;0.00;;
39222;SDS011;24936;46.328;11.026;2022-09-09T06:50:45;0.00;;;0.00;;
39222;SDS011;24936;46.328;11.026;2022-09-09T06:55:36;0.00;;;0.00;;
39222;SDS011;24936;46.328;11.026;2022-09-09T06:58:01;0.00;;;0.00;;
39222;SDS011;24936;46.328;11.026;2022-09-09T07:00:27;0.00;;;0.00;;
39222;SDS011;24936;46.328;11.026;2022-09-09T07:02:53;0.00;;;0.00;;
39222;SDS011;24936;46.328;11.026;2022-09-09T07:05:18;0.00;;;0.00;;
39222;SDS011;24936;46.328;11.026;2022-09-09T07:07:44;0.00;;;0.00;;
39222;SDS011;24936;46.328;11.026;2022-09-09T07:10:09;0.00;;;0.00;;
39222;SDS011;24936;46.328;11.026;2022-09-09T07:12:35;0.00;;;0.00;;
39222;SDS011;24936;46.328;11.026;2022-09-09T07:15:00;0.00;;;0.00;;
39222;SDS011;24936;46.328;11.026;2022-09-09T07:17:26;0.00;;;0.00;;
39222;SDS011;24936;46.328;11.026;2022-09-09T07:19:53;0.00;;;0.00;;
39222;SDS011;24936;46.328;11.026;2022-09-09T07:22:18;0.00;;;0.00;;
39222;SDS011;24936;46.328;11.026;2022-09-09T07:24:45;0.00;;;0.00;;
39222;SDS011;24936;46.328;11.026;2022-09-09T07:27:10;0.00;;;0.00;;
39222;SDS011;24936;46.328;11.026;2022-09-09T07:29:35;0.00;;;0.00;;
39222;SDS011;24936;46.328;11.026;2022-09-09T07:32:01;0.00;;;0.00;;
39222;SDS011;24936;46.328;11.026;2022-09-09T07:34:27;0.00;;;0.00;;
39222;SDS011;24936;46.328;11.026;2022-09-09T07:36:52;0.00;;;0.00;;
39222;SDS011;24936;46.328;11.026;2022-09-09T07:39:18;0.00;;;0.00;;
39222;SDS011;24936;46.328;11.026;2022-09-09T07:41:44;0.00;;;0.00;;
39222;SDS011;24936;46.328;11.026;2022-09-09T07:44:12;0.00;;;0.00;;
39222;SDS011;24936;46.328;11.026;2022-09-09T07:46:40;0.00;;;0.00;;
39222;SDS011;24936;46.328;11.026;2022-09-09T07:49:06;0.00;;;0.00;;
39222;SDS011;24936;46.328;11.026;2022-09-09T07:51:33;0.00;;;0.00;;
39222;SDS011;24936;46.328;11.026;2022-09-09T07:54:01;0.00;;;0.00;;
39222;SDS011;24936;46.328;11.026;2022-09-09T07:56:31;0.00;;;0.00;;
39222;SDS011;24936;46.328;11.026;2022-09-09T07:58:57;0.00;;;0.00;;
39222;SDS011;24936;46.328;11.026;2022-09-09T08:04:00;0.00;;;0.00;;
39222;SDS011;24936;46.328;11.026;2022-09-09T08:06:28;0.00;;;0.00;;
39222;SDS011;24936;46.328;11.026;2022-09-09T08:08:55;0.00;;;0.00;;
39222;SDS011;24936;46.328;11.026;2022-09-09T08:11:22;0.00;;;0.00;;
39222;SDS011;24936;46.328;11.026;2022-09-09T08:13:51;0.00;;;0.00;;
39222;SDS011;24936;46.328;11.026;2022-09-09T08:16:18;0.00;;;0.00;;
39222;SDS011;24936;46.328;11.026;2022-09-09T08:18:49;0.00;;;0.00;;
39222;SDS011;24936;46.328;11.026;2022-09-09T08:21:38;0.00;;;0.00;;
39222;SDS011;24936;46.328;11.026;2022-09-09T08:24:04;0.00;;;0.00;;
39222;SDS011;24936;46.328;11.026;2022-09-09T08:26:33;0.00;;;0.00;;
39222;SDS011;24936;46.328;11.026;2022-09-09T08:29:09;0.00;;;0.00;;
39222;SDS011;24936;46.328;11.026;2022-09-09T08:31:40;0.00;;;0.00;;
39222;SDS011;24936;46.328;11.026;2022-09-09T08:34:08;0.00;;;0.00;;
39222;SDS011;24936;46.328;11.026;2022-09-09T08:36:35;0.00;;;0.00;;
39222;SDS011;24936;46.328;11.026;2022-09-09T08:39:04;0.00;;;0.00;;
39222;SDS011;24936;46.328;11.026;2022-09-09T08:58:21;0.00;;;0.00;;
39222;SDS011;24936;46.328;11.026;2022-09-09T09:03:23;0.00;;;0.00;;
39222;SDS011;24936;46.328;11.026;2022-09-09T09:06:01;0.00;;;0.00;;
39222;SDS011;24936;46.328;11.026;2022-09-09T09:13:43;0.00;;;0.00;;
39222;SDS011;24936;46.328;11.026;2022-09-09T09:16:19;0.00;;;0.00;;
39222;SDS011;24936;46.328;11.026;2022-09-09T09:18:47;0.00;;;0.00;;
39222;SDS011;24936;46.328;11.026;2022-09-09T09:23:57;0.00;;;0.00;;
39222;SDS011;24936;46.328;11.026;2022-09-09T09:26:25;0.00;;;0.00;;
39222;SDS011;24936;46.328;11.026;2022-09-09T09:28:56;0.00;;;0.00;;
39222;SDS011;24936;46.328;11.026;2022-09-09T09:31:24;0.00;;;0.00;;
39222;SDS011;24936;46.328;11.026;2022-09-09T09:33:55;0.00;;;0.00;;
39222;SDS011;24936;46.328;11.026;2022-09-09T09:36:23;0.00;;;0.00;;
39222;SDS011;24936;46.328;11.026;2022-09-09T09:38:58;0.00;;;0.00;;
39222;SDS011;24936;46.328;11.026;2022-09-09T09:41:29;0.00;;;0.00;;
39222;SDS011;24936;46.328;11.026;2022-09-09T09:43:55;0.00;;;0.00;;
39222;SDS011;24936;46.328;11.026;2022-09-09T09:51:28;0.00;;;0.00;;
39222;SDS011;24936;46.328;11.026;2022-09-09T09:54:02;0.00;;;0.00;;
39222;SDS011;24936;46.328;11.026;2022-09-09T09:56:34;0.00;;;0.00;;
39222;SDS011;24936;46.328;11.026;2022-09-09T10:01:29;0.00;;;0.00;;
39222;SDS011;24936;46.328;11.026;2022-09-09T10:04:19;0.00;;;0.00;;
39222;SDS011;24936;46.328;11.026;2022-09-09T10:06:48;0.00;;;0.00;;
39222;SDS011;24936;46.328;11.026;2022-09-09T10:19:34;0.00;;;0.00;;
39222;SDS011;24936;46.328;11.026;2022-09-09T10:36:13;0.00;;;0.00;;
39222;SDS011;24936;46.328;11.026;2022-09-09T10:38:46;0.00;;;0.00;;
39222;SDS011;24936;46.328;11.026;2022-09-09T10:44:06;0.00;;;0.00;;
39222;SDS011;24936;46.328;11.026;2022-09-09T10:55:38;0.00;;;0.00;;
39222;SDS011;24936;46.328;11.026;2022-09-09T10:58:09;0.00;;;0.00;;
39222;SDS011;24936;46.328;11.026;2022-09-09T11:00:47;0.77;;;0.20;;
39222;SDS011;24936;46.328;11.026;2022-09-09T11:03:20;0.00;;;0.00;;
39222;SDS011;24936;46.328;11.026;2022-09-09T11:05:52;0.00;;;0.00;;
39222;SDS011;24936;46.328;11.026;2022-09-09T11:08:25;0.00;;;0.00;;
39222;SDS011;24936;46.328;11.026;2022-09-09T11:14:32;0.00;;;0.00;;
39222;SDS011;24936;46.328;11.026;2022-09-09T11:22:00;0.00;;;0.00;;
39222;SDS011;24936;46.328;11.026;2022-09-09T11:24:35;0.00;;;0.00;;
39222;SDS011;24936;46.328;11.026;2022-09-09T11:32:23;0.00;;;0.00;;
39222;SDS011;24936;46.328;11.026;2022-09-09T11:41:04;0.00;;;0.00;;
39222;SDS011;24936;46.328;11.026;2022-09-09T11:46:03;0.00;;;0.00;;
39222;SDS011;24936;46.328;11.026;2022-09-09T11:48:31;0.00;;;0.00;;
39222;SDS011;24936;46.328;11.026;2022-09-09T11:51:03;0.00;;;0.00;;
39222;SDS011;24936;46.328;11.026;2022-09-09T11:53:30;0.00;;;0.00;;
39222;SDS011;24936;46.328;11.026;2022-09-09T11:56:00;0.00;;;0.00;;
39222;SDS011;24936;46.328;11.026;2022-09-09T11:58:43;0.00;;;0.00;;
39222;SDS011;24936;46.328;11.026;2022-09-09T12:01:30;0.00;;;0.00;;
39222;SDS011;24936;46.328;11.026;2022-09-09T12:06:48;0.00;;;0.00;;
39222;SDS011;24936;46.328;11.026;2022-09-09T12:09:19;0.00;;;0.00;;
39222;SDS011;24936;46.328;11.026;2022-09-09T12:14:38;0.00;;;0.00;;
39222;SDS011;24936;46.328;11.026;2022-09-09T12:20:08;0.00;;;0.00;;
39222;SDS011;24936;46.328;11.026;2022-09-09T12:33:33;0.00;;;0.00;;
39222;SDS011;24936;46.328;11.026;2022-09-09T12:35:59;0.00;;;0.00;;
39222;SDS011;24936;46.328;11.026;2022-09-09T12:38:29;0.00;;;0.00;;
39222;SDS011;24936;46.328;11.026;2022-09-09T12:40:59;0.00;;;0.00;;
39222;SDS011;24936;46.328;11.026;2022-09-09T12:43:26;0.00;;;0.00;;
39222;SDS011;24936;46.328;11.026;2022-09-09T12:45:56;0.00;;;0.00;;
39222;SDS011;24936;46.328;11.026;2022-09-09T12:48:30;0.00;;;0.00;;
39222;SDS011;24936;46.328;11.026;2022-09-09T12:51:01;0.00;;;0.00;;
39222;SDS011;24936;46.328;11.026;2022-09-09T12:53:32;0.00;;;0.00;;
39222;SDS011;24936;46.328;11.026;2022-09-09T12:56:07;0.00;;;0.00;;
39222;SDS011;24936;46.328;11.026;2022-09-09T13:01:37;0.00;;;0.00;;
39222;SDS011;24936;46.328;11.026;2022-09-09T13:04:15;0.00;;;0.00;;
39222;SDS011;24936;46.328;11.026;2022-09-09T13:06:46;0.00;;;0.00;;
39222;SDS011;24936;46.328;11.026;2022-09-09T13:09:12;0.00;;;0.00;;
39222;SDS011;24936;46.328;11.026;2022-09-09T13:11:38;0.00;;;0.00;;
39222;SDS011;24936;46.328;11.026;2022-09-09T13:14:26;0.00;;;0.00;;
39222;SDS011;24936;46.328;11.026;2022-09-09T13:16:59;0.00;;;0.00;;
39222;SDS011;24936;46.328;11.026;2022-09-09T13:19:26;0.00;;;0.00;;
39222;SDS011;24936;46.328;11.026;2022-09-09T13:22:14;0.00;;;0.00;;
39222;SDS011;24936;46.328;11.026;2022-09-09T13:27:50;0.00;;;0.00;;
39222;SDS011;24936;46.328;11.026;2022-09-09T13:30:21;0.00;;;0.00;;
39222;SDS011;24936;46.328;11.026;2022-09-09T13:35:29;0.00;;;0.00;;
39222;SDS011;24936;46.328;11.026;2022-09-09T13:37:55;0.00;;;0.00;;
39222;SDS011;24936;46.328;11.026;2022-09-09T13:40:22;0.00;;;0.00;;
39222;SDS011;24936;46.328;11.026;2022-09-09T13:42:52;0.00;;;0.00;;
39222;SDS011;24936;46.328;11.026;2022-09-09T13:45:22;0.00;;;0.00;;
39222;SDS011;24936;46.328;11.026;2022-09-09T13:47:51;0.00;;;0.00;;
39222;SDS011;24936;46.328;11.026;2022-09-09T13:50:27;0.00;;;0.00;;
39222;SDS011;24936;46.328;11.026;2022-09-09T13:52:54;0.00;;;0.00;;
39222;SDS011;24936;46.328;11.026;2022-09-09T13:55:23;0.00;;;0.00;;
39222;SDS011;24936;46.328;11.026;2022-09-09T14:00:19;0.00;;;0.00;;
39222;SDS011;24936;46.328;11.026;2022-09-09T14:02:46;0.00;;;0.00;;
39222;SDS011;24936;46.328;11.026;2022-09-09T14:05:12;0.00;;;0.00;;
39222;SDS011;24936;46.328;11.026;2022-09-09T14:07:37;0.00;;;0.00;;
39222;SDS011;24936;46.328;11.026;2022-09-09T14:10:05;0.00;;;0.00;;
39222;SDS011;24936;46.328;11.026;2022-09-09T14:12:31;0.00;;;0.00;;
39222;SDS011;24936;46.328;11.026;2022-09-09T14:14:57;0.00;;;0.00;;
39222;SDS011;24936;46.328;11.026;2022-09-09T14:17:24;0.00;;;0.00;;
39222;SDS011;24936;46.328;11.026;2022-09-09T14:19:52;0.00;;;0.00;;
39222;SDS011;24936;46.328;11.026;2022-09-09T14:22:17;0.00;;;0.00;;
39222;SDS011;24936;46.328;11.026;2022-09-09T14:24:43;0.10;;;0.00;;
39222;SDS011;24936;46.328;11.026;2022-09-09T14:27:08;0.00;;;0.00;;
39222;SDS011;24936;46.328;11.026;2022-09-09T14:29:34;0.00;;;0.00;;
39222;SDS011;24936;46.328;11.026;2022-09-09T14:31:59;0.00;;;0.00;;
39222;SDS011;24936;46.328;11.026;2022-09-09T14:34:26;0.00;;;0.00;;
39222;SDS011;24936;46.328;11.026;2022-09-09T14:36:51;0.00;;;0.00;;
39222;SDS011;24936;46.328;11.026;2022-09-09T14:39:17;0.00;;;0.00;;
39222;SDS011;24936;46.328;11.026;2022-09-09T14:41:42;0.00;;;0.00;;
39222;SDS011;24936;46.328;11.026;2022-09-09T14:44:08;0.00;;;0.00;;
39222;SDS011;24936;46.328;11.026;2022-09-09T14:46:33;0.00;;;0.00;;
39222;SDS011;24936;46.328;11.026;2022-09-09T14:48:59;0.00;;;0.00;;
39222;SDS011;24936;46.328;11.026;2022-09-09T14:51:24;0.00;;;0.00;;
39222;SDS011;24936;46.328;11.026;2022-09-09T14:53:52;0.00;;;0.00;;
39222;SDS011;24936;46.328;11.026;2022-09-09T14:56:23;0.00;;;0.00;;
39222;SDS011;24936;46.328;11.026;2022-09-09T14:58:52;0.00;;;0.00;;
39222;SDS011;24936;46.328;11.026;2022-09-09T15:01:20;0.00;;;0.00;;
39222;SDS011;24936;46.328;11.026;2022-09-09T15:03:49;0.00;;;0.00;;
39222;SDS011;24936;46.328;11.026;2022-09-09T15:06:17;0.00;;;0.00;;
39222;SDS011;24936;46.328;11.026;2022-09-09T15:11:09;0.00;;;0.00;;
39222;SDS011;24936;46.328;11.026;2022-09-09T15:13:36;0.00;;;0.00;;
39222;SDS011;24936;46.328;11.026;2022-09-09T15:16:07;0.00;;;0.00;;
39222;SDS011;24936;46.328;11.026;2022-09-09T15:18:37;0.00;;;0.00;;
39222;SDS011;24936;46.328;11.026;2022-09-09T15:21:10;0.10;;;0.00;;
39222;SDS011;24936;46.328;11.026;2022-09-09T15:23:36;0.00;;;0.00;;
39222;SDS011;24936;46.328;11.026;2022-09-09T15:26:02;0.00;;;0.00;;
39222;SDS011;24936;46.328;11.026;2022-09-09T15:28:28;0.00;;;0.00;;
39222;SDS011;24936;46.328;11.026;2022-09-09T15:30:56;0.00;;;0.00;;
39222;SDS011;24936;46.328;11.026;2022-09-09T15:35:47;0.00;;;0.00;;
39222;SDS011;24936;46.328;11.026;2022-09-09T15:40:38;0.00;;;0.00;;
39222;SDS011;24936;46.328;11.026;2022-09-09T15:43:05;0.00;;;0.00;;
39222;SDS011;24936;46.328;11.026;2022-09-09T15:45:31;0.00;;;0.00;;
39222;SDS011;24936;46.328;11.026;2022-09-09T15:47:58;0.00;;;0.00;;
39222;SDS011;24936;46.328;11.026;2022-09-09T15:50:26;0.00;;;0.00;;
39222;SDS011;24936;46.328;11.026;2022-09-09T15:55:18;0.00;;;0.00;;
39222;SDS011;24936;46.328;11.026;2022-09-09T15:57:45;0.00;;;0.00;;
39222;SDS011;24936;46.328;11.026;2022-09-09T16:02:38;0.00;;;0.00;;
39222;SDS011;24936;46.328;11.026;2022-09-09T16:05:04;0.00;;;0.00;;
39222;SDS011;24936;46.328;11.026;2022-09-09T16:07:30;0.00;;;0.00;;
39222;SDS011;24936;46.328;11.026;2022-09-09T16:12:20;0.00;;;0.00;;
39222;SDS011;24936;46.328;11.026;2022-09-09T16:17:11;0.00;;;0.00;;
39222;SDS011;24936;46.328;11.026;2022-09-09T16:22:03;0.00;;;0.00;;
39222;SDS011;24936;46.328;11.026;2022-09-09T16:24:29;0.00;;;0.00;;
39222;SDS011;24936;46.328;11.026;2022-09-09T16:26:55;0.00;;;0.00;;
39222;SDS011;24936;46.328;11.026;2022-09-09T16:29:21;0.03;;;0.00;;
39222;SDS011;24936;46.328;11.026;2022-09-09T16:31:48;0.00;;;0.00;;
39222;SDS011;24936;46.328;11.026;2022-09-09T16:34:14;0.00;;;0.00;;
39222;SDS011;24936;46.328;11.026;2022-09-09T16:36:42;0.00;;;0.00;;
39222;SDS011;24936;46.328;11.026;2022-09-09T16:39:09;0.00;;;0.00;;
39222;SDS011;24936;46.328;11.026;2022-09-09T16:41:37;0.00;;;0.00;;
39222;SDS011;24936;46.328;11.026;2022-09-09T16:44:04;0.00;;;0.00;;
39222;SDS011;24936;46.328;11.026;2022-09-09T16:46:32;0.00;;;0.00;;
39222;SDS011;24936;46.328;11.026;2022-09-09T16:49:01;0.00;;;0.00;;
39222;SDS011;24936;46.328;11.026;2022-09-09T16:51:29;0.00;;;0.00;;
39222;SDS011;24936;46.328;11.026;2022-09-09T16:53:59;0.00;;;0.00;;
39222;SDS011;24936;46.328;11.026;2022-09-09T16:56:27;0.00;;;0.00;;
39222;SDS011;24936;46.328;11.026;2022-09-09T16:58:57;0.00;;;0.00;;
39222;SDS011;24936;46.328;11.026;2022-09-09T17:01:25;0.00;;;0.00;;
39222;SDS011;24936;46.328;11.026;2022-09-09T17:03:53;0.00;;;0.00;;
39222;SDS011;24936;46.328;11.026;2022-09-09T17:06:22;0.00;;;0.00;;
39222;SDS011;24936;46.328;11.026;2022-09-09T17:08:53;0.00;;;0.00;;
39222;SDS011;24936;46.328;11.026;2022-09-09T17:11:19;0.00;;;0.00;;
39222;SDS011;24936;46.328;11.026;2022-09-09T17:13:45;0.00;;;0.00;;
39222;SDS011;24936;46.328;11.026;2022-09-09T17:16:12;0.00;;;0.00;;
39222;SDS011;24936;46.328;11.026;2022-09-09T17:18:40;0.00;;;0.00;;
39222;SDS011;24936;46.328;11.026;2022-09-09T17:21:06;0.00;;;0.00;;
39222;SDS011;24936;46.328;11.026;2022-09-09T17:23:34;0.00;;;0.00;;
39222;SDS011;24936;46.328;11.026;2022-09-09T17:26:03;0.00;;;0.00;;
39222;SDS011;24936;46.328;11.026;2022-09-09T17:28:33;0.00;;;0.00;;
39222;SDS011;24936;46.328;11.026;2022-09-09T17:31:00;0.00;;;0.00;;
39222;SDS011;24936;46.328;11.026;2022-09-09T17:33:28;0.00;;;0.00;;
39222;SDS011;24936;46.328;11.026;2022-09-09T17:35:57;0.00;;;0.00;;
39222;SDS011;24936;46.328;11.026;2022-09-09T17:38:24;0.00;;;0.00;;
39222;SDS011;24936;46.328;11.026;2022-09-09T17:41:00;0.00;;;0.00;;
39222;SDS011;24936;46.328;11.026;2022-09-09T17:43:33;0.00;;;0.00;;
39222;SDS011;24936;46.328;11.026;2022-09-09T17:46:07;0.00;;;0.00;;
39222;SDS011;24936;46.328;11.026;2022-09-09T17:48:32;0.00;;;0.00;;
39222;SDS011;24936;46.328;11.026;2022-09-09T17:50:58;0.00;;;0.00;;
39222;SDS011;24936;46.328;11.026;2022-09-09T17:53:24;0.00;;;0.00;;
39222;SDS011;24936;46.328;11.026;2022-09-09T17:55:51;0.20;;;0.10;;
39222;SDS011;24936;46.328;11.026;2022-09-09T17:58:16;0.00;;;0.00;;
39222;SDS011;24936;46.328;11.026;2022-09-09T18:00:42;0.00;;;0.00;;
39222;SDS011;24936;46.328;11.026;2022-09-09T18:03:07;0.00;;;0.00;;
39222;SDS011;24936;46.328;11.026;2022-09-09T18:05:34;0.00;;;0.00;;
39222;SDS011;24936;46.328;11.026;2022-09-09T18:07:59;0.00;;;0.00;;
39222;SDS011;24936;46.328;11.026;2022-09-09T18:10:25;0.00;;;0.00;;
39222;SDS011;24936;46.328;11.026;2022-09-09T18:12:50;0.35;;;0.10;;
39222;SDS011;24936;46.328;11.026;2022-09-09T18:15:15;0.00;;;0.00;;
39222;SDS011;24936;46.328;11.026;2022-09-09T18:17:41;0.00;;;0.00;;
39222;SDS011;24936;46.328;11.026;2022-09-09T18:20:06;0.00;;;0.00;;
39222;SDS011;24936;46.328;11.026;2022-09-09T18:22:32;0.00;;;0.00;;
39222;SDS011;24936;46.328;11.026;2022-09-09T18:24:58;0.00;;;0.00;;